createdAt,value
2019-04-03T00:00:11.193Z,1008.1
2019-04-03T00:05:43.858Z,1008.2
2019-04-03T00:11:16.788Z,1008.1
2019-04-03T00:16:49.853Z,1008.1
2019-04-03T00:22:22.747Z,1008.1
2019-04-03T00:27:55.703Z,1008.2
2019-04-03T00:33:28.683Z,1008.2
2019-04-03T00:39:01.605Z,1008.3
2019-04-03T00:44:34.395Z,1008.1
2019-04-03T00:50:07.174Z,1008
2019-04-03T00:55:39.873Z,1008.1
2019-04-03T01:01:12.683Z,1008
2019-04-03T01:06:45.454Z,1007.8
2019-04-03T01:12:18.255Z,1007.7
2019-04-03T01:17:51.076Z,1007.7
2019-04-03T01:23:23.879Z,1007.7
2019-04-03T01:28:56.636Z,1007.5
2019-04-03T01:34:29.352Z,1007.4
2019-04-03T01:40:02.094Z,1007.4
2019-04-03T01:45:34.836Z,1007.3
2019-04-03T01:51:07.552Z,1007.3
2019-04-03T01:56:40.115Z,1007.1
2019-04-03T02:02:12.855Z,1007.2
2019-04-03T02:07:45.359Z,1007.1
2019-04-03T02:13:18.187Z,1007
2019-04-03T02:18:50.695Z,1007
2019-04-03T02:24:23.374Z,1007
2019-04-03T02:29:55.722Z,1006.8
2019-04-03T02:35:28.432Z,1006.7
2019-04-03T02:41:03.350Z,1006.6
2019-04-03T02:46:33.144Z,1006.6
2019-04-03T02:52:05.186Z,1006.5
2019-04-03T02:57:37.718Z,1006.4
2019-04-03T03:03:09.563Z,1006.5
2019-04-03T03:08:42.508Z,1006.5
2019-04-03T03:14:13.248Z,1006.5
2019-04-03T03:19:45.158Z,1006.5
2019-04-03T03:25:17.209Z,1006.4
2019-04-03T03:30:57.552Z,1006.3
2019-04-03T03:36:24.587Z,1006.3
2019-04-03T03:41:55.577Z,1006.3
2019-04-03T03:47:25.797Z,1006.2
2019-04-03T03:52:58.395Z,1006.3
2019-04-03T03:58:30.400Z,1006.2
2019-04-03T04:04:02.652Z,1006.2
2019-04-03T04:09:35.163Z,1006.3
2019-04-03T04:15:07.820Z,1006.2
2019-04-03T04:20:40.222Z,1006.1
2019-04-03T04:26:13.046Z,1006.1
2019-04-03T04:31:45.637Z,1006
2019-04-03T04:37:18.302Z,1006
2019-04-03T04:42:50.899Z,1005.9
2019-04-03T04:48:23.541Z,1005.9
2019-04-03T04:53:56.285Z,1005.9
2019-04-03T04:59:29.132Z,1006
2019-04-03T05:05:02.091Z,1006.1
2019-04-03T05:10:34.714Z,1006.3
2019-04-03T05:16:06.513Z,1006.5
2019-04-03T05:21:38.881Z,1006.5
2019-04-03T05:27:11.434Z,1006.5
2019-04-03T05:32:43.944Z,1006.6
2019-04-03T05:38:16.706Z,1006.6
2019-04-03T05:43:48.916Z,1006.7
2019-04-03T05:49:21.153Z,1006.6
2019-04-03T05:54:53.041Z,1006.6
2019-04-03T06:00:25.362Z,1006.5
2019-04-03T06:05:58.502Z,1006.5
2019-04-03T06:11:24.622Z,1006.5
2019-04-03T06:16:56.993Z,1006.4
2019-04-03T06:22:29.273Z,1006.4
2019-04-03T06:28:01.287Z,1006.3
2019-04-03T06:33:34.893Z,1006.2
2019-04-03T06:39:05.444Z,1006.1
2019-04-03T06:44:37.183Z,1006
2019-04-03T06:50:11.796Z,1005.9
2019-04-03T06:55:40.990Z,1005.8
2019-04-03T07:01:13.075Z,1005.7
2019-04-03T07:06:45.590Z,1005.6
2019-04-03T07:12:17.367Z,1005.6
2019-04-03T07:17:50.229Z,1005.4
2019-04-03T07:23:22.737Z,1005.4
2019-04-03T07:28:55.237Z,1005.3
2019-04-03T07:34:27.832Z,1005.3
2019-04-03T07:40:02.316Z,1005.2
2019-04-03T07:45:33.564Z,1005.1
2019-04-03T07:51:06.251Z,1005
2019-04-03T07:56:38.415Z,1004.8
2019-04-03T08:02:12.542Z,1004.7
2019-04-03T08:07:43.315Z,1004.7
2019-04-03T08:13:16.159Z,1004.8
2019-04-03T08:18:49.901Z,1004.6
2019-04-03T08:24:20.890Z,1004.2
2019-04-03T08:29:53.298Z,1004
2019-04-03T08:35:25.625Z,1003.9
2019-04-03T08:40:58.420Z,1004.1
2019-04-03T08:46:31.290Z,1004
2019-04-03T08:52:05.631Z,1003.9
2019-04-03T08:57:37.674Z,1003.8
2019-04-03T09:03:10.412Z,1003.8
2019-04-03T09:08:43.300Z,1003.6
2019-04-03T09:14:15.745Z,1003
2019-04-03T09:19:48.734Z,1002.9
2019-04-03T09:25:22.575Z,1003.1
2019-04-03T09:30:55.637Z,1003.3
2019-04-03T09:36:28.867Z,1003.2
2019-04-03T09:42:02.042Z,1003.2
2019-04-03T09:47:27.646Z,1003.1
2019-04-03T09:53:02.421Z,1003
2019-04-03T09:58:35.262Z,1003.1
2019-04-03T10:04:07.166Z,1002.9
2019-04-03T10:09:42.784Z,1002.9
2019-04-03T10:15:13.228Z,1002.8
2019-04-03T10:20:48.568Z,1002.7
2019-04-03T10:26:19.744Z,1002.7
2019-04-03T10:31:54.699Z,1002.5
2019-04-03T10:37:25.685Z,1002.3
2019-04-03T10:43:00.463Z,1002.3
2019-04-03T10:48:31.706Z,1002
2019-04-03T10:54:04.667Z,1001.8
2019-04-03T10:59:37.474Z,1001.7
2019-04-03T11:05:10.797Z,1002
2019-04-03T11:10:43.727Z,1001.9
2019-04-03T11:16:16.806Z,1002
2019-04-03T11:21:49.802Z,1002
2019-04-03T11:27:25.373Z,1001.6
2019-04-03T11:32:55.971Z,1001.4
2019-04-03T11:38:29.781Z,1001.5
2019-04-03T11:44:02.339Z,1001.7
2019-04-03T11:49:35.513Z,1001.9
2019-04-03T12:00:41.239Z,1002.1
2019-04-03T12:06:15.810Z,1002.4
2019-04-03T12:11:46.907Z,1002.4
2019-04-03T12:17:19.416Z,1002.7
2019-04-03T12:22:54.082Z,1002.9
2019-04-03T12:28:24.607Z,1003.2
2019-04-03T12:34:03.275Z,1003.4
2019-04-03T12:39:29.736Z,1004
2019-04-03T12:45:01.935Z,1004.5
2019-04-03T12:50:38.532Z,1004.5
2019-04-03T12:56:10.838Z,1004.6
2019-04-03T13:01:43.175Z,1004.8
2019-04-03T13:07:15.425Z,1005.3
2019-04-03T13:12:47.765Z,1005.3
2019-04-03T13:18:19.900Z,1005.3
2019-04-03T13:23:47.701Z,1005.4
2019-04-03T13:29:21.283Z,1005.3
2019-04-03T13:34:43.837Z,1005.2
2019-04-03T13:40:14.871Z,1005.3
2019-04-03T13:45:46.833Z,1005.4
2019-04-03T13:51:13.357Z,1005.7
2019-04-03T13:56:41.731Z,1005.6
2019-04-03T14:02:13.172Z,1005.7
2019-04-03T14:07:36.265Z,1005.6
2019-04-03T14:13:11.332Z,1005.6
2019-04-03T14:18:40.687Z,1005.8
2019-04-03T14:24:11.522Z,1005.8
2019-04-03T14:29:36.768Z,1005.8
2019-04-03T14:35:32.433Z,1005.8
2019-04-03T14:40:41.316Z,1005.9
2019-04-03T14:46:12.102Z,1006
2019-04-03T14:51:44.345Z,1006.1
2019-04-03T14:57:21.704Z,1006.1
2019-04-03T15:02:49.098Z,1006.1
2019-04-03T15:08:22.657Z,1006.2
2019-04-03T15:13:52.452Z,1006.3
2019-04-03T15:19:24.906Z,1006.4
2019-04-03T15:24:56.564Z,1006.4
2019-04-03T15:30:28.600Z,1006.4
2019-04-03T15:36:03.432Z,1006.4
2019-04-03T15:41:33.969Z,1006.6
2019-04-03T15:46:56.184Z,1006.4
2019-04-03T15:52:28.321Z,1006.6
2019-04-03T15:58:00.046Z,1006.6
2019-04-03T16:03:31.720Z,1006.7
2019-04-03T16:09:03.783Z,1006.7
2019-04-03T16:14:35.363Z,1006.7
2019-04-03T16:20:07.307Z,1006.8
2019-04-03T16:25:32.941Z,1006.7
2019-04-03T16:31:04.522Z,1006.7
2019-04-03T16:36:30.736Z,1006.6
2019-04-03T16:42:02.973Z,1006.6
2019-04-03T16:47:33.578Z,1006.6
2019-04-03T16:52:58.277Z,1006.6
2019-04-03T16:58:29.397Z,1006.4
2019-04-03T17:04:02.582Z,1006.3
2019-04-03T17:09:26.675Z,1006.4
2019-04-03T17:14:58.057Z,1006.4
2019-04-03T17:20:29.634Z,1006.3
2019-04-03T17:26:00.584Z,1006.2
2019-04-03T17:31:24.615Z,1006.1
2019-04-03T17:36:55.750Z,1006.2
2019-04-03T17:42:26.858Z,1006.2
2019-04-03T17:47:57.972Z,1006.4
2019-04-03T17:53:29.074Z,1006.4
2019-04-03T17:59:00.213Z,1006.3
2019-04-03T18:04:23.738Z,1006.2
2019-04-03T18:09:54.843Z,1006.2
2019-04-03T18:15:27.389Z,1006.2
2019-04-03T18:20:58.672Z,1006.3
2019-04-03T18:26:21.238Z,1006.3
2019-04-03T18:31:52.299Z,1006.3
2019-04-03T18:37:24.217Z,1006.4
2019-04-03T18:42:56.108Z,1006.5
2019-04-03T18:48:27.994Z,1006.6
2019-04-03T18:53:59.786Z,1006.5
2019-04-03T18:59:31.555Z,1006.6
2019-04-03T19:05:02.053Z,1006.7
2019-04-03T19:10:30.985Z,1006.8
2019-04-03T19:16:02.795Z,1006.8
2019-04-03T19:21:34.595Z,1006.8
2019-04-03T19:27:06.170Z,1007.1
2019-04-03T19:32:37.085Z,1007.1
2019-04-03T19:38:07.931Z,1007.2
2019-04-03T19:43:39.020Z,1007
2019-04-03T19:49:10.843Z,1007.2
2019-04-03T19:54:42.489Z,1007.1
2019-04-03T20:00:14.234Z,1007.2
2019-04-03T20:05:45.997Z,1007.2
2019-04-03T20:11:16.924Z,1007.3
2019-04-03T20:16:47.855Z,1007.3
2019-04-03T20:22:18.648Z,1007.3
2019-04-03T20:27:52.074Z,1007.3
2019-04-03T20:33:20.377Z,1007.2
2019-04-03T20:38:51.261Z,1007.2
2019-04-03T20:44:22.162Z,1007.2
2019-04-03T20:49:53.062Z,1007.1
2019-04-03T20:55:25.393Z,1007.1
2019-04-03T21:01:05.899Z,1007.1
2019-04-03T21:06:27.331Z,1007.2
2019-04-03T21:11:58.329Z,1007.3
2019-04-03T21:17:29.262Z,1007.2
2019-04-03T21:23:02.788Z,1007.2
2019-04-03T21:28:30.980Z,1007.3
2019-04-03T21:34:02.378Z,1007.2
2019-04-03T21:39:33.843Z,1007.2
2019-04-03T21:45:07.059Z,1007
2019-04-03T21:50:34.414Z,1006.8
2019-04-03T21:56:05.198Z,1006.7
2019-04-03T22:01:36.025Z,1006.8
2019-04-03T22:07:06.915Z,1006.7
2019-04-03T22:12:37.733Z,1006.7
2019-04-03T22:18:08.563Z,1006.6
2019-04-03T22:23:39.458Z,1006.5
2019-04-03T22:29:10.262Z,1006.4
2019-04-03T22:34:43.309Z,1006.5
2019-04-03T22:40:11.978Z,1006.3
2019-04-03T22:45:42.763Z,1006.2
2019-04-03T22:51:13.651Z,1006
2019-04-03T22:56:45.879Z,1005.9
2019-04-03T23:02:15.287Z,1005.7
2019-04-03T23:07:46.180Z,1005.6
2019-04-03T23:13:16.959Z,1005.6
2019-04-03T23:18:47.847Z,1005.5
2019-04-03T23:24:18.668Z,1005.5
2019-04-03T23:29:49.591Z,1005.4
2019-04-03T23:35:21.127Z,1005.1
2019-04-03T23:40:51.267Z,1004.9
2019-04-03T23:46:22.115Z,1004.8
2019-04-03T23:51:52.904Z,1004.6
2019-04-03T23:57:23.801Z,1004.3
